Time;durP1;ratioP1;P1;durP2;ratioP2;P2;SDS_P1;SDS_P2;PMS_P1;PMS_P2;Temp;Humidity;BMP_temperature;BMP_pressure;BME280_temperature;BME280_humidity;BME280_pressure;Samples;Min_cycle;Max_cycle;Signal;HPM_P1;HPM_P2
2022/08/19 00:00:14;;;;;;;7.78;4.28;;;;;;;;;;5005948;28;20030;-82
2022/08/19 00:02:41;;;;;;;9.05;4.00;;;;;;;;;;5005291;28;20044;-82
2022/08/19 00:05:08;;;;;;;7.55;3.85;;;;;;;;;;5002741;28;20038;-82
2022/08/19 00:07:34;;;;;;;8.50;4.50;;;;;;;;;;5002451;28;20079;-82
2022/08/19 00:10:00;;;;;;;9.13;5.35;;;;;;;;;;5005569;28;20030;-82
2022/08/19 00:12:26;;;;;;;8.93;4.20;;;;;;;;;;5003373;28;20040;-82
2022/08/19 00:14:53;;;;;;;9.18;4.00;;;;;;;;;;4993970;28;20557;-82
2022/08/19 00:17:20;;;;;;;8.57;4.05;;;;;;;;;;4997639;28;20049;-83
2022/08/19 00:19:46;;;;;;;8.65;4.50;;;;;;;;;;5003159;28;20026;-82
2022/08/19 00:22:12;;;;;;;10.07;4.40;;;;;;;;;;5006864;28;20022;-82
2022/08/19 00:24:38;;;;;;;8.50;4.35;;;;;;;;;;5006778;28;20053;-82
2022/08/19 00:27:04;;;;;;;10.13;4.28;;;;;;;;;;4999398;28;20030;-82
2022/08/19 00:29:30;;;;;;;9.93;4.10;;;;;;;;;;4978103;28;20327;-82
2022/08/19 00:31:58;;;;;;;9.15;3.80;;;;;;;;;;4979552;28;20129;-82
2022/08/19 00:34:26;;;;;;;7.47;3.50;;;;;;;;;;4995859;28;20038;-82
2022/08/19 00:36:52;;;;;;;7.95;4.70;;;;;;;;;;4995871;28;20026;-82
2022/08/19 00:39:18;;;;;;;8.75;4.47;;;;;;;;;;4994680;28;20069;-83
2022/08/19 00:41:47;;;;;;;8.65;4.40;;;;;;;;;;5006125;28;20026;-82
2022/08/19 00:44:14;;;;;;;8.15;4.10;;;;;;;;;;5004398;28;20029;-82
2022/08/19 00:46:42;;;;;;;8.40;3.90;;;;;;;;;;5005331;28;20052;-81
2022/08/19 00:49:28;;;;;;;11.82;4.30;;;;;;;;;;4996237;28;20053;-82
2022/08/19 00:51:58;;;;;;;6.65;4.00;;;;;;;;;;5004221;28;20085;-82
2022/08/19 00:54:24;;;;;;;9.05;4.15;;;;;;;;;;5004313;28;20031;-82
2022/08/19 00:56:51;;;;;;;7.57;3.78;;;;;;;;;;5004813;28;20089;-82
2022/08/19 00:59:17;;;;;;;11.32;4.85;;;;;;;;;;4989163;28;20027;-82
2022/08/19 01:01:44;;;;;;;8.43;4.78;;;;;;;;;;4995650;28;20022;-81
2022/08/19 01:04:10;;;;;;;8.50;4.30;;;;;;;;;;5003797;28;20090;-81
2022/08/19 01:06:37;;;;;;;9.63;4.18;;;;;;;;;;5003502;28;20026;-82
2022/08/19 01:09:04;;;;;;;8.38;3.90;;;;;;;;;;5006295;28;20113;-81
2022/08/19 01:11:31;;;;;;;10.70;4.40;;;;;;;;;;5003034;28;20018;-81
2022/08/19 01:13:57;;;;;;;7.47;3.63;;;;;;;;;;5003968;28;20026;-81
2022/08/19 01:16:25;;;;;;;6.45;3.83;;;;;;;;;;5003125;28;20096;-81
2022/08/19 01:18:52;;;;;;;8.63;4.53;;;;;;;;;;5004920;28;20022;-81
2022/08/19 01:21:36;;;;;;;7.72;3.80;;;;;;;;;;4997930;28;20395;-82
2022/08/19 01:24:02;;;;;;;10.13;4.00;;;;;;;;;;4999689;28;20054;-82
2022/08/19 01:26:28;;;;;;;6.88;4.22;;;;;;;;;;5001115;28;20126;-81
2022/08/19 01:28:56;;;;;;;8.45;4.20;;;;;;;;;;5005085;28;20031;-82
2022/08/19 01:31:26;;;;;;;7.60;4.15;;;;;;;;;;5003359;28;20124;-82
2022/08/19 01:33:53;;;;;;;11.32;4.35;;;;;;;;;;4994685;28;20042;-81
2022/08/19 01:36:25;;;;;;;7.45;3.92;;;;;;;;;;5003065;28;20022;-81
2022/08/19 01:38:52;;;;;;;7.95;5.03;;;;;;;;;;5004661;28;20022;-81
2022/08/19 01:41:18;;;;;;;8.15;4.10;;;;;;;;;;5001194;28;20037;-81
2022/08/19 01:43:45;;;;;;;8.27;3.58;;;;;;;;;;4995421;28;20050;-81
2022/08/19 01:46:11;;;;;;;10.63;4.22;;;;;;;;;;4995368;28;20027;-81
2022/08/19 01:48:39;;;;;;;10.30;4.07;;;;;;;;;;5002310;28;20026;-81
2022/08/19 01:51:05;;;;;;;7.80;4.13;;;;;;;;;;5002271;28;20037;-81
2022/08/19 01:53:31;;;;;;;8.55;4.40;;;;;;;;;;4992728;28;20094;-80
2022/08/19 01:55:58;;;;;;;6.70;4.10;;;;;;;;;;4991047;28;20059;-82
2022/08/19 01:58:29;;;;;;;6.35;4.00;;;;;;;;;;4999616;28;20018;-81
2022/08/19 02:00:55;;;;;;;9.88;4.65;;;;;;;;;;5002044;28;20065;-81
2022/08/19 02:03:21;;;;;;;7.13;4.07;;;;;;;;;;5004032;28;20030;-81
2022/08/19 02:05:47;;;;;;;9.02;4.13;;;;;;;;;;5002621;28;20037;-81
2022/08/19 02:08:13;;;;;;;7.38;3.70;;;;;;;;;;5001642;28;20038;-81
2022/08/19 02:10:41;;;;;;;7.78;3.45;;;;;;;;;;5003538;28;20433;-81
2022/08/19 02:13:07;;;;;;;7.90;3.88;;;;;;;;;;5002034;28;20086;-82
2022/08/19 02:15:33;;;;;;;9.63;4.22;;;;;;;;;;5002259;28;20121;-81
2022/08/19 02:17:59;;;;;;;8.15;4.40;;;;;;;;;;5002626;28;20034;-81
2022/08/19 02:20:25;;;;;;;10.52;4.78;;;;;;;;;;5001091;28;20027;-81
2022/08/19 02:22:51;;;;;;;11.80;4.85;;;;;;;;;;5001309;28;20035;-82
2022/08/19 02:25:17;;;;;;;8.00;3.83;;;;;;;;;;5002171;28;20023;-81
2022/08/19 02:27:43;;;;;;;9.65;3.42;;;;;;;;;;4999844;28;20580;-82
2022/08/19 02:30:11;;;;;;;7.88;3.53;;;;;;;;;;5003680;28;20034;-83
2022/08/19 02:32:37;;;;;;;8.32;3.53;;;;;;;;;;5000677;28;20040;-82
2022/08/19 02:35:03;;;;;;;8.60;4.10;;;;;;;;;;4979810;28;20074;-82
2022/08/19 02:40:14;;;;;;;8.82;3.95;;;;;;;;;;5002657;28;20041;-82
2022/08/19 02:42:42;;;;;;;9.13;3.90;;;;;;;;;;5001114;28;20049;-83
2022/08/19 02:45:09;;;;;;;9.02;4.60;;;;;;;;;;4994157;28;20023;-82
2022/08/19 02:47:37;;;;;;;10.18;4.47;;;;;;;;;;5001751;28;20035;-81
2022/08/19 02:50:04;;;;;;;10.38;4.68;;;;;;;;;;5008439;28;20030;-83
2022/08/19 02:52:30;;;;;;;9.10;5.05;;;;;;;;;;5005459;28;20146;-82
2022/08/19 02:54:57;;;;;;;9.07;5.55;;;;;;;;;;4999575;28;20033;-82
2022/08/19 02:57:23;;;;;;;10.07;5.82;;;;;;;;;;5008174;28;20029;-82
2022/08/19 02:59:49;;;;;;;7.63;5.18;;;;;;;;;;5008525;28;20027;-82
2022/08/19 03:02:15;;;;;;;10.77;5.05;;;;;;;;;;5009442;28;20019;-83
2022/08/19 03:04:41;;;;;;;8.02;4.55;;;;;;;;;;5002715;28;20033;-82
2022/08/19 03:07:08;;;;;;;11.98;5.35;;;;;;;;;;4991815;28;20022;-82
2022/08/19 03:09:36;;;;;;;10.60;6.03;;;;;;;;;;4989508;28;20192;-83
2022/08/19 03:12:03;;;;;;;10.07;5.68;;;;;;;;;;4995463;28;20034;-82
2022/08/19 03:14:30;;;;;;;8.98;5.28;;;;;;;;;;5011511;28;20034;-82
2022/08/19 03:16:57;;;;;;;9.57;5.40;;;;;;;;;;5010445;28;20030;-82
2022/08/19 03:19:23;;;;;;;8.15;5.60;;;;;;;;;;5010750;28;20323;-83
2022/08/19 03:21:49;;;;;;;8.18;5.85;;;;;;;;;;5009505;28;20030;-82
2022/08/19 03:24:16;;;;;;;10.48;6.03;;;;;;;;;;5007848;28;20030;-82
2022/08/19 03:26:43;;;;;;;10.13;5.95;;;;;;;;;;5005555;28;20057;-82
2022/08/19 03:29:10;;;;;;;9.35;5.97;;;;;;;;;;5005034;28;20077;-82
2022/08/19 03:31:37;;;;;;;10.57;5.80;;;;;;;;;;5004763;28;20023;-82
2022/08/19 03:34:04;;;;;;;8.25;5.80;;;;;;;;;;5009806;28;20046;-83
2022/08/19 03:36:30;;;;;;;9.10;5.82;;;;;;;;;;5007792;28;20118;-82
2022/08/19 03:38:57;;;;;;;10.07;6.78;;;;;;;;;;5013678;28;20057;-82
2022/08/19 03:41:25;;;;;;;9.98;6.57;;;;;;;;;;5010555;28;20065;-82
2022/08/19 03:43:52;;;;;;;8.95;6.00;;;;;;;;;;5012114;28;20449;-82
2022/08/19 03:46:22;;;;;;;9.90;6.22;;;;;;;;;;5011713;28;20029;-83
2022/08/19 03:48:53;;;;;;;11.70;6.43;;;;;;;;;;5010387;28;20034;-82
2022/08/19 03:51:21;;;;;;;10.93;6.30;;;;;;;;;;5009825;28;20018;-82
2022/08/19 03:53:47;;;;;;;9.23;6.05;;;;;;;;;;5009989;28;20034;-82
2022/08/19 03:56:14;;;;;;;8.48;6.10;;;;;;;;;;5007707;28;20032;-82
2022/08/19 03:58:41;;;;;;;11.20;6.07;;;;;;;;;;5004899;28;20069;-82
2022/08/19 04:01:11;;;;;;;8.82;5.78;;;;;;;;;;5004667;28;20042;-82
2022/08/19 04:03:38;;;;;;;11.48;6.18;;;;;;;;;;5008034;28;20031;-84
2022/08/19 04:06:12;;;;;;;9.85;5.75;;;;;;;;;;5008900;28;20033;-82
2022/08/19 04:08:39;;;;;;;8.88;5.70;;;;;;;;;;5009739;28;20014;-83
2022/08/19 04:11:07;;;;;;;11.55;6.60;;;;;;;;;;5009526;28;20014;-82
2022/08/19 04:13:34;;;;;;;9.13;6.47;;;;;;;;;;5008859;28;20022;-82
2022/08/19 04:16:00;;;;;;;8.57;5.93;;;;;;;;;;5009556;28;20027;-82
2022/08/19 04:18:26;;;;;;;8.88;6.20;;;;;;;;;;5004080;28;20030;-82
2022/08/19 04:20:52;;;;;;;8.35;6.07;;;;;;;;;;5008304;28;20033;-83
2022/08/19 04:23:18;;;;;;;8.30;6.20;;;;;;;;;;5009186;28;20030;-83
2022/08/19 04:25:44;;;;;;;9.23;6.22;;;;;;;;;;5010258;28;20027;-83
2022/08/19 04:28:12;;;;;;;10.85;6.97;;;;;;;;;;5009387;28;20030;-82
2022/08/19 04:30:42;;;;;;;11.13;7.30;;;;;;;;;;5009186;28;20034;-82
2022/08/19 04:33:08;;;;;;;10.07;7.07;;;;;;;;;;5008976;28;20030;-82
2022/08/19 04:35:38;;;;;;;12.95;8.02;;;;;;;;;;5006667;28;20037;-82
2022/08/19 04:38:04;;;;;;;10.60;7.25;;;;;;;;;;5006874;28;20057;-82
2022/08/19 04:43:15;;;;;;;9.18;6.47;;;;;;;;;;5009426;28;20033;-82
2022/08/19 04:45:43;;;;;;;9.65;6.07;;;;;;;;;;5007889;28;20025;-82
2022/08/19 04:48:09;;;;;;;9.50;6.47;;;;;;;;;;5009096;28;20029;-82
2022/08/19 04:50:35;;;;;;;14.13;7.03;;;;;;;;;;5009252;28;20030;-82
2022/08/19 04:53:01;;;;;;;10.82;7.63;;;;;;;;;;5009319;28;20033;-82
2022/08/19 04:55:27;;;;;;;8.95;6.28;;;;;;;;;;5008713;28;20031;-83
2022/08/19 04:57:56;;;;;;;10.70;6.90;;;;;;;;;;5008672;28;20022;-83
2022/08/19 05:00:23;;;;;;;10.20;6.68;;;;;;;;;;4994390;28;20098;-83
2022/08/19 05:02:49;;;;;;;8.95;6.55;;;;;;;;;;5013639;28;20038;-83
2022/08/19 05:05:15;;;;;;;12.68;6.80;;;;;;;;;;4999974;28;20029;-83
2022/08/19 05:07:41;;;;;;;11.85;7.40;;;;;;;;;;5009165;28;20023;-84
2022/08/19 05:10:08;;;;;;;11.05;7.43;;;;;;;;;;5009354;28;20053;-83
2022/08/19 05:12:34;;;;;;;9.45;7.10;;;;;;;;;;5009788;28;20038;-83
2022/08/19 05:15:00;;;;;;;11.70;8.52;;;;;;;;;;5003931;28;20061;-83
2022/08/19 05:17:27;;;;;;;11.10;8.73;;;;;;;;;;5004819;28;20026;-83
2022/08/19 05:22:38;;;;;;;12.68;9.05;;;;;;;;;;4998449;28;20042;-83
2022/08/19 05:25:05;;;;;;;10.68;7.72;;;;;;;;;;5009307;28;20040;-83
2022/08/19 05:27:32;;;;;;;10.35;8.68;;;;;;;;;;5004735;28;20033;-83
2022/08/19 05:29:58;;;;;;;11.13;8.50;;;;;;;;;;5008323;28;20094;-82
2022/08/19 05:32:24;;;;;;;12.98;8.07;;;;;;;;;;4993706;28;20491;-83
2022/08/19 05:34:50;;;;;;;12.13;8.80;;;;;;;;;;4999704;28;20046;-83
2022/08/19 05:37:17;;;;;;;9.18;7.65;;;;;;;;;;5004752;28;20042;-83
2022/08/19 05:39:44;;;;;;;10.50;8.38;;;;;;;;;;5004263;28;20066;-83
2022/08/19 05:42:11;;;;;;;11.85;9.07;;;;;;;;;;5006920;28;20035;-85
2022/08/19 05:44:44;;;;;;;12.25;8.80;;;;;;;;;;5006511;28;20034;-83
2022/08/19 05:47:11;;;;;;;13.55;9.00;;;;;;;;;;5001334;28;20027;-83
2022/08/19 05:49:37;;;;;;;11.57;8.75;;;;;;;;;;4989996;28;20031;-82
2022/08/19 05:52:05;;;;;;;11.40;9.13;;;;;;;;;;5004255;28;20141;-82
2022/08/19 05:54:31;;;;;;;12.35;8.93;;;;;;;;;;5010132;28;20041;-82
2022/08/19 05:56:57;;;;;;;11.40;8.73;;;;;;;;;;5004486;28;20035;-83
2022/08/19 05:59:24;;;;;;;10.85;8.73;;;;;;;;;;5004299;28;20053;-84
2022/08/19 06:01:51;;;;;;;11.27;9.30;;;;;;;;;;4997464;28;20023;-80
2022/08/19 06:04:18;;;;;;;12.30;9.15;;;;;;;;;;4993786;28;20150;-81
2022/08/19 06:06:45;;;;;;;12.70;9.00;;;;;;;;;;4997722;28;20501;-83
2022/08/19 06:09:12;;;;;;;12.63;9.35;;;;;;;;;;5003008;28;20026;-83
2022/08/19 06:11:43;;;;;;;9.55;8.02;;;;;;;;;;5008440;28;20018;-83
2022/08/19 06:14:10;;;;;;;10.77;8.27;;;;;;;;;;5006320;28;20034;-82
2022/08/19 06:16:38;;;;;;;11.55;8.13;;;;;;;;;;5001826;28;20030;-83
2022/08/19 06:19:06;;;;;;;12.48;8.05;;;;;;;;;;5008891;28;20029;-83
2022/08/19 06:21:32;;;;;;;13.05;8.88;;;;;;;;;;5011891;28;20014;-83
2022/08/19 06:23:59;;;;;;;11.60;7.95;;;;;;;;;;5012972;28;20036;-83
2022/08/19 06:26:26;;;;;;;14.88;8.27;;;;;;;;;;5009013;28;20033;-82
2022/08/19 06:28:52;;;;;;;9.55;7.78;;;;;;;;;;5005700;28;20018;-83
2022/08/19 06:31:21;;;;;;;16.90;8.38;;;;;;;;;;5009164;28;20022;-83
2022/08/19 06:33:48;;;;;;;14.13;8.90;;;;;;;;;;5008623;28;20026;-84
2022/08/19 06:36:21;;;;;;;10.73;8.60;;;;;;;;;;4996846;28;20030;-82
2022/08/19 06:38:47;;;;;;;18.70;8.48;;;;;;;;;;5002548;28;20042;-82
2022/08/19 06:41:13;;;;;;;24.88;9.77;;;;;;;;;;5008925;28;20511;-83
2022/08/19 06:43:41;;;;;;;15.82;7.93;;;;;;;;;;5009354;28;20049;-83
2022/08/19 06:46:11;;;;;;;16.63;8.82;;;;;;;;;;5002903;28;20033;-83
2022/08/19 06:48:37;;;;;;;12.20;9.18;;;;;;;;;;5001016;28;20032;-82
2022/08/19 06:51:05;;;;;;;12.23;7.85;;;;;;;;;;5010381;28;20132;-82
2022/08/19 06:53:31;;;;;;;10.30;8.02;;;;;;;;;;5005513;28;20030;-83
2022/08/19 06:56:01;;;;;;;10.90;7.88;;;;;;;;;;5007250;28;20050;-83
2022/08/19 06:58:28;;;;;;;10.30;7.57;;;;;;;;;;5006821;28;20114;-83
2022/08/19 07:00:55;;;;;;;11.43;9.23;;;;;;;;;;5008163;28;20061;-82
2022/08/19 07:03:21;;;;;;;11.05;8.32;;;;;;;;;;5005309;28;20022;-83
2022/08/19 07:05:47;;;;;;;11.48;9.23;;;;;;;;;;5002797;28;20057;-82
2022/08/19 07:08:13;;;;;;;11.38;8.95;;;;;;;;;;4995905;28;20030;-82
2022/08/19 07:10:43;;;;;;;9.63;7.72;;;;;;;;;;4988631;28;20035;-81
2022/08/19 07:13:09;;;;;;;10.93;7.95;;;;;;;;;;4984998;28;20062;-81
2022/08/19 07:15:37;;;;;;;11.55;8.43;;;;;;;;;;4990402;28;20030;-80
2022/08/19 07:18:03;;;;;;;13.90;12.45;;;;;;;;;;4997593;28;20426;-80
2022/08/19 07:20:29;;;;;;;11.68;9.73;;;;;;;;;;5004360;28;20109;-80
2022/08/19 07:22:55;;;;;;;11.90;10.70;;;;;;;;;;5002633;28;20078;-79
2022/08/19 07:25:21;;;;;;;12.15;11.02;;;;;;;;;;5003226;28;20471;-80
2022/08/19 07:27:50;;;;;;;15.00;13.77;;;;;;;;;;4998385;28;20391;-80
2022/08/19 07:30:16;;;;;;;16.65;15.07;;;;;;;;;;4981389;28;20479;-80
2022/08/19 07:32:42;;;;;;;13.93;12.52;;;;;;;;;;4994449;28;20034;-80
2022/08/19 07:35:09;;;;;;;13.05;11.88;;;;;;;;;;4995670;28;20049;-80
2022/08/19 07:37:36;;;;;;;14.80;13.50;;;;;;;;;;4980403;28;20062;-80
2022/08/19 07:40:04;;;;;;;13.13;10.38;;;;;;;;;;4997598;28;20058;-80
2022/08/19 07:42:30;;;;;;;19.35;17.80;;;;;;;;;;4996238;28;20027;-80
2022/08/19 07:44:56;;;;;;;17.00;15.60;;;;;;;;;;4996647;28;20053;-79
2022/08/19 07:47:22;;;;;;;18.02;16.40;;;;;;;;;;4991420;28;20117;-81
2022/08/19 07:49:48;;;;;;;16.70;15.30;;;;;;;;;;4995991;28;20061;-80
2022/08/19 07:52:16;;;;;;;19.35;17.80;;;;;;;;;;4994178;28;20031;-81
2022/08/19 07:54:42;;;;;;;34.72;32.92;;;;;;;;;;4994793;28;20026;-81
2022/08/19 07:57:09;;;;;;;21.42;19.77;;;;;;;;;;4991809;28;20532;-81
2022/08/19 07:59:35;;;;;;;22.17;20.27;;;;;;;;;;4990988;28;20503;-80
2022/08/19 08:02:02;;;;;;;23.42;21.73;;;;;;;;;;4989186;28;20520;-81
2022/08/19 08:09:59;;;;;;;91.07;87.20;;;;;;;;;;4986810;28;20397;-80
2022/08/19 08:12:28;;;;;;;113.78;109.30;;;;;;;;;;4987703;28;20018;-82
2022/08/19 08:14:55;;;;;;;295.42;285.25;;;;;;;;;;4994348;28;20082;-82
2022/08/19 08:17:23;;;;;;;266.23;256.00;;;;;;;;;;4990838;28;20121;-81
2022/08/19 08:19:50;;;;;;;356.33;342.35;;;;;;;;;;4994440;28;20026;-81
2022/08/19 08:25:08;;;;;;;589.33;565.05;;;;;;;;;;4993871;28;20513;-81
2022/08/19 08:27:39;;;;;;;514.75;493.98;;;;;;;;;;4994165;28;20030;-80
2022/08/19 08:30:06;;;;;;;547.38;524.78;;;;;;;;;;4996701;28;20030;-79
2022/08/19 08:32:32;;;;;;;577.60;552.92;;;;;;;;;;4988654;28;20029;-82
2022/08/19 08:34:59;;;;;;;579.15;555.15;;;;;;;;;;4977115;28;20043;-81
2022/08/19 08:37:25;;;;;;;567.97;544.22;;;;;;;;;;4995675;28;20019;-81
2022/08/19 08:39:51;;;;;;;453.02;435.05;;;;;;;;;;4996791;28;20032;-80
2022/08/19 08:42:27;;;;;;;318.00;306.67;;;;;;;;;;4990277;28;20033;-82
2022/08/19 08:45:01;;;;;;;282.80;272.75;;;;;;;;;;4977198;28;20037;-80
2022/08/19 08:47:32;;;;;;;292.10;281.70;;;;;;;;;;4987669;28;20266;-81
2022/08/19 08:50:11;;;;;;;238.13;230.18;;;;;;;;;;4997920;28;20123;-81
2022/08/19 08:52:42;;;;;;;150.93;145.20;;;;;;;;;;4987748;28;20030;-82
2022/08/19 08:55:12;;;;;;;139.35;134.23;;;;;;;;;;4982108;28;20047;-82
2022/08/19 08:57:39;;;;;;;259.13;250.02;;;;;;;;;;4985792;28;20065;-82
2022/08/19 09:00:07;;;;;;;229.07;221.48;;;;;;;;;;4996596;28;20049;-83
2022/08/19 09:02:34;;;;;;;314.00;302.35;;;;;;;;;;4997450;28;20061;-81
2022/08/19 09:05:00;;;;;;;222.65;214.88;;;;;;;;;;5002322;28;20026;-83
2022/08/19 09:07:26;;;;;;;204.25;197.00;;;;;;;;;;4985563;28;20030;-83
2022/08/19 09:09:56;;;;;;;139.32;134.23;;;;;;;;;;4997760;28;20041;-84
2022/08/19 09:12:38;;;;;;;160.10;154.13;;;;;;;;;;5000831;28;20164;-83
2022/08/19 09:15:09;;;;;;;141.52;136.32;;;;;;;;;;4990251;28;20118;-84
2022/08/19 09:17:35;;;;;;;134.18;129.23;;;;;;;;;;5001445;28;20022;-82
2022/08/19 09:20:06;;;;;;;143.40;138.23;;;;;;;;;;5001528;28;20403;-82
2022/08/19 09:22:33;;;;;;;152.25;146.38;;;;;;;;;;4995819;28;20479;-82
2022/08/19 09:24:59;;;;;;;161.45;155.77;;;;;;;;;;4996943;28;20126;-81
2022/08/19 09:27:26;;;;;;;175.27;169.02;;;;;;;;;;4996356;28;20081;-82
2022/08/19 09:29:53;;;;;;;153.70;148.00;;;;;;;;;;4996068;28;20040;-82
2022/08/19 09:32:20;;;;;;;153.77;148.20;;;;;;;;;;4986420;28;20121;-81
2022/08/19 09:34:46;;;;;;;122.35;117.60;;;;;;;;;;4984678;28;20097;-83
2022/08/19 09:37:12;;;;;;;145.05;139.70;;;;;;;;;;4996809;28;20030;-84
2022/08/19 09:39:40;;;;;;;145.18;139.65;;;;;;;;;;4993468;28;20037;-83
2022/08/19 09:42:11;;;;;;;148.98;143.48;;;;;;;;;;4991022;28;20042;-83
2022/08/19 09:44:39;;;;;;;143.25;137.90;;;;;;;;;;4987142;28;20025;-83
2022/08/19 09:47:05;;;;;;;147.88;142.30;;;;;;;;;;4998831;28;20030;-82
2022/08/19 09:49:31;;;;;;;155.35;149.98;;;;;;;;;;4997935;28;20046;-82
2022/08/19 09:51:57;;;;;;;183.25;176.68;;;;;;;;;;4996378;28;20085;-82
2022/08/19 09:54:24;;;;;;;185.40;178.57;;;;;;;;;;4997838;28;20026;-83
2022/08/19 09:56:50;;;;;;;169.77;163.45;;;;;;;;;;4995558;28;20018;-82
2022/08/19 09:59:16;;;;;;;177.73;171.43;;;;;;;;;;5006162;28;20034;-83
2022/08/19 10:01:42;;;;;;;228.25;220.07;;;;;;;;;;4999959;28;20103;-83
2022/08/19 10:04:08;;;;;;;158.90;153.07;;;;;;;;;;4995061;28;20450;-82
2022/08/19 10:06:35;;;;;;;181.30;174.73;;;;;;;;;;4994371;28;20077;-83
2022/08/19 10:09:07;;;;;;;150.27;143.60;;;;;;;;;;5002727;28;20495;-83
2022/08/19 10:11:34;;;;;;;138.45;132.45;;;;;;;;;;5000618;28;20038;-83
2022/08/19 10:14:00;;;;;;;190.80;183.85;;;;;;;;;;5012960;28;20018;-83
2022/08/19 10:16:27;;;;;;;190.23;183.50;;;;;;;;;;5009909;28;20084;-83
2022/08/19 10:18:53;;;;;;;191.90;184.98;;;;;;;;;;5005132;28;20034;-83
2022/08/19 10:21:22;;;;;;;154.25;148.45;;;;;;;;;;5003591;28;20023;-82
2022/08/19 10:23:50;;;;;;;173.15;166.95;;;;;;;;;;5004866;28;20027;-83
2022/08/19 10:26:26;;;;;;;154.85;148.90;;;;;;;;;;5006843;28;20035;-82
2022/08/19 10:28:52;;;;;;;159.55;153.35;;;;;;;;;;5005807;28;20027;-83
2022/08/19 10:31:20;;;;;;;199.57;191.30;;;;;;;;;;5002116;28;20469;-83
2022/08/19 10:33:50;;;;;;;160.00;153.00;;;;;;;;;;5002734;28;20623;-83
2022/08/19 10:36:22;;;;;;;202.40;193.82;;;;;;;;;;5002598;28;20046;-83
2022/08/19 10:38:50;;;;;;;220.05;210.50;;;;;;;;;;5005567;28;20049;-82
2022/08/19 10:41:22;;;;;;;210.52;201.30;;;;;;;;;;5000769;28;21201;-84
2022/08/19 10:43:54;;;;;;;167.23;160.07;;;;;;;;;;4997080;28;20026;-83
2022/08/19 10:46:22;;;;;;;155.03;148.30;;;;;;;;;;5004422;28;20048;-83
2022/08/19 10:48:48;;;;;;;155.32;149.15;;;;;;;;;;5010060;28;20034;-83
2022/08/19 10:53:59;;;;;;;181.93;174.57;;;;;;;;;;5006445;28;20093;-82
2022/08/19 11:08:41;;;;;;;157.07;150.85;;;;;;;;;;5004356;28;20028;-82
2022/08/19 11:11:08;;;;;;;168.43;161.93;;;;;;;;;;5007803;28;20019;-82
2022/08/19 11:13:37;;;;;;;172.80;166.30;;;;;;;;;;5009848;28;20022;-82
2022/08/19 11:16:05;;;;;;;206.70;199.02;;;;;;;;;;5009411;28;20027;-81
2022/08/19 11:18:31;;;;;;;144.65;139.10;;;;;;;;;;5007758;28;20030;-83
2022/08/19 11:21:05;;;;;;;223.88;216.02;;;;;;;;;;5000972;28;20037;-87
2022/08/19 11:23:31;;;;;;;120.03;114.75;;;;;;;;;;4996869;28;20082;-87
2022/08/19 11:25:59;;;;;;;547.45;525.13;;;;;;;;;;4995245;28;20041;-85
2022/08/19 11:28:25;;;;;;;233.25;224.15;;;;;;;;;;4993749;28;20030;-85
2022/08/19 11:30:51;;;;;;;130.55;125.32;;;;;;;;;;4985604;28;20041;-86
2022/08/19 11:33:18;;;;;;;29.58;27.50;;;;;;;;;;4983041;28;20081;-85
2022/08/19 11:35:44;;;;;;;20.55;18.83;;;;;;;;;;4987329;28;20050;-85
2022/08/19 11:38:10;;;;;;;16.50;14.38;;;;;;;;;;4989490;28;20018;-85
2022/08/19 11:40:37;;;;;;;15.90;12.75;;;;;;;;;;4993620;28;20022;-85
2022/08/19 11:43:03;;;;;;;13.95;12.68;;;;;;;;;;4982306;28;20034;-85
2022/08/19 11:45:29;;;;;;;15.57;14.15;;;;;;;;;;4995240;28;20026;-83
2022/08/19 11:47:55;;;;;;;12.82;11.02;;;;;;;;;;4979593;28;20042;-83
2022/08/19 11:50:23;;;;;;;37.35;34.78;;;;;;;;;;4998019;28;20031;-81
2022/08/19 11:52:49;;;;;;;62.72;59.42;;;;;;;;;;4997730;28;20187;-81
2022/08/19 11:55:15;;;;;;;349.95;335.75;;;;;;;;;;5000534;28;20121;-82
2022/08/19 11:57:43;;;;;;;77.63;74.00;;;;;;;;;;4999991;28;20053;-82
2022/08/19 12:00:12;;;;;;;392.80;377.98;;;;;;;;;;4996027;28;20034;-81
2022/08/19 12:02:39;;;;;;;474.98;455.05;;;;;;;;;;4998539;28;20077;-82
2022/08/19 12:05:06;;;;;;;585.72;561.15;;;;;;;;;;4989359;28;20031;-81
2022/08/19 12:07:33;;;;;;;561.72;539.30;;;;;;;;;;4993079;28;20031;-81
2022/08/19 12:09:59;;;;;;;487.75;468.88;;;;;;;;;;5004402;28;20035;-82
2022/08/19 12:12:26;;;;;;;446.40;428.85;;;;;;;;;;5003294;28;20033;-81
2022/08/19 12:14:56;;;;;;;531.15;509.67;;;;;;;;;;5006988;28;20031;-83
2022/08/19 12:17:30;;;;;;;279.80;270.63;;;;;;;;;;5001043;28;20046;-82
2022/08/19 12:19:56;;;;;;;226.00;218.13;;;;;;;;;;4994208;28;20015;-82
2022/08/19 12:22:23;;;;;;;262.88;254.18;;;;;;;;;;4987939;28;20015;-82
2022/08/19 12:24:52;;;;;;;374.70;360.63;;;;;;;;;;4988603;28;20037;-82
2022/08/19 12:27:18;;;;;;;248.15;239.73;;;;;;;;;;4991315;28;20022;-83
2022/08/19 12:29:44;;;;;;;244.07;235.93;;;;;;;;;;5003663;28;20091;-82
2022/08/19 12:32:10;;;;;;;219.85;212.60;;;;;;;;;;5004233;28;20048;-81
2022/08/19 12:34:37;;;;;;;175.27;169.27;;;;;;;;;;5004037;28;20046;-82
2022/08/19 12:37:04;;;;;;;167.77;161.82;;;;;;;;;;5002286;28;20033;-83
2022/08/19 12:39:31;;;;;;;137.15;132.10;;;;;;;;;;4990115;28;20026;-81
2022/08/19 12:41:57;;;;;;;143.48;138.43;;;;;;;;;;4986529;28;20026;-82
2022/08/19 12:44:24;;;;;;;146.52;141.02;;;;;;;;;;4982007;28;20046;-84
2022/08/19 12:46:50;;;;;;;141.68;136.65;;;;;;;;;;4983380;28;20407;-83
2022/08/19 12:49:16;;;;;;;211.43;204.27;;;;;;;;;;4998304;28;20030;-84
2022/08/19 12:51:43;;;;;;;229.43;221.82;;;;;;;;;;4999146;28;20026;-83
2022/08/19 12:54:09;;;;;;;237.18;228.98;;;;;;;;;;4999117;28;20034;-83
2022/08/19 12:56:36;;;;;;;244.65;236.55;;;;;;;;;;4998207;28;20037;-83
2022/08/19 12:59:04;;;;;;;236.32;228.10;;;;;;;;;;4989223;28;20512;-82
2022/08/19 13:01:32;;;;;;;289.17;279.48;;;;;;;;;;4996902;28;20022;-84
2022/08/19 13:03:59;;;;;;;212.80;205.38;;;;;;;;;;4999601;28;20054;-84
2022/08/19 13:06:25;;;;;;;176.30;170.15;;;;;;;;;;4998659;28;20465;-82
2022/08/19 13:08:51;;;;;;;175.48;169.00;;;;;;;;;;4993463;28;20030;-83
2022/08/19 13:11:19;;;;;;;135.43;130.02;;;;;;;;;;4998942;28;20033;-82
2022/08/19 13:13:47;;;;;;;154.23;148.52;;;;;;;;;;4999143;28;20081;-82
2022/08/19 13:16:13;;;;;;;157.93;151.98;;;;;;;;;;4998318;28;20494;-82
2022/08/19 13:18:40;;;;;;;143.75;138.32;;;;;;;;;;4993409;28;20160;-82
2022/08/19 13:21:08;;;;;;;149.70;144.18;;;;;;;;;;4996407;28;20038;-82
2022/08/19 13:23:35;;;;;;;147.10;141.60;;;;;;;;;;4998098;28;20022;-83
2022/08/19 13:26:03;;;;;;;173.38;167.13;;;;;;;;;;4999503;28;20034;-82
2022/08/19 13:34:03;;;;;;;145.13;139.48;;;;;;;;;;4999617;28;20497;-82
2022/08/19 13:36:29;;;;;;;169.13;162.75;;;;;;;;;;4997877;28;20037;-82
2022/08/19 13:38:56;;;;;;;160.85;155.05;;;;;;;;;;4994657;28;20037;-82
2022/08/19 13:41:22;;;;;;;161.18;155.40;;;;;;;;;;4997263;28;20031;-82
2022/08/19 13:43:49;;;;;;;135.60;129.73;;;;;;;;;;4997765;28;20030;-81
2022/08/19 13:46:15;;;;;;;132.32;126.80;;;;;;;;;;4994616;28;20081;-80
2022/08/19 13:48:42;;;;;;;141.07;135.63;;;;;;;;;;4997087;28;20497;-80
2022/08/19 13:51:09;;;;;;;220.70;212.90;;;;;;;;;;4992910;28;20089;-82
2022/08/19 13:53:37;;;;;;;362.45;348.50;;;;;;;;;;4993179;28;20520;-82
2022/08/19 13:56:16;;;;;;;379.80;364.73;;;;;;;;;;4988578;28;20033;-82
2022/08/19 13:58:42;;;;;;;401.42;385.75;;;;;;;;;;4987168;28;20027;-81
2022/08/19 14:01:09;;;;;;;459.27;441.15;;;;;;;;;;4996304;28;20034;-82
2022/08/19 14:03:35;;;;;;;442.15;424.27;;;;;;;;;;4980856;28;20044;-81
2022/08/19 14:06:01;;;;;;;339.75;327.02;;;;;;;;;;4994951;28;20034;-82
2022/08/19 14:08:28;;;;;;;468.90;448.90;;;;;;;;;;4995527;28;20030;-82
2022/08/19 14:10:54;;;;;;;266.40;256.83;;;;;;;;;;4996962;28;20077;-82
2022/08/19 14:13:21;;;;;;;468.33;449.27;;;;;;;;;;4979100;28;20058;-81
2022/08/19 14:15:48;;;;;;;416.10;399.90;;;;;;;;;;4977962;28;20398;-81
2022/08/19 14:18:15;;;;;;;389.75;374.70;;;;;;;;;;4979787;28;20482;-83
2022/08/19 14:20:41;;;;;;;488.80;468.70;;;;;;;;;;4998182;28;20026;-85
2022/08/19 14:23:07;;;;;;;577.30;553.15;;;;;;;;;;4997654;28;20027;-83
2022/08/19 14:25:33;;;;;;;498.33;478.00;;;;;;;;;;4995566;28;20552;-83
2022/08/19 14:28:00;;;;;;;575.60;551.22;;;;;;;;;;4984347;28;20027;-83
2022/08/19 14:30:33;;;;;;;560.58;536.40;;;;;;;;;;4994667;28;20022;-81
2022/08/19 14:33:00;;;;;;;491.15;471.17;;;;;;;;;;4994870;28;20026;-80
2022/08/19 14:35:27;;;;;;;504.67;484.02;;;;;;;;;;4993801;28;20073;-80
2022/08/19 14:37:55;;;;;;;319.60;307.88;;;;;;;;;;4995389;28;20032;-81
2022/08/19 14:40:25;;;;;;;381.42;366.85;;;;;;;;;;4999461;28;20023;-81
2022/08/19 14:42:51;;;;;;;346.83;333.55;;;;;;;;;;4998988;28;20023;-81
2022/08/19 14:45:17;;;;;;;286.70;275.85;;;;;;;;;;4999691;28;20105;-80
2022/08/19 14:47:43;;;;;;;248.55;239.07;;;;;;;;;;4993168;28;20109;-81
2022/08/19 14:50:11;;;;;;;244.23;235.48;;;;;;;;;;4992977;28;20065;-81
2022/08/19 14:52:37;;;;;;;293.60;282.98;;;;;;;;;;4999069;28;20429;-81